Time;durP1;ratioP1;P1;durP2;ratioP2;P2;SDS_P1;SDS_P2;PMS_P1;PMS_P2;Temp;Humidity;BMP_temperature;BMP_pressure;BME280_temperature;BME280_humidity;BME280_pressure;Samples;Min_cycle;Max_cycle;Signal;HPM_P1;HPM_P2
2021/01/19 00:01:18;;;;;;;9.93;5.57;;;-0.80;99.90;;;;;;4963668;28;20048;-65
2021/01/19 00:03:44;;;;;;;7.45;5.55;;;-0.90;99.90;;;;;;4964849;28;20130;-66
2021/01/19 00:06:12;;;;;;;12.40;6.38;;;-0.80;99.90;;;;;;4960080;28;20047;-67
2021/01/19 00:08:39;;;;;;;11.63;6.05;;;-0.90;99.90;;;;;;4961599;28;20050;-65
2021/01/19 00:11:05;;;;;;;11.50;8.40;;;-0.90;99.90;;;;;;4964292;28;20054;-66
2021/01/19 00:13:32;;;;;;;7.07;5.53;;;-0.90;99.90;;;;;;4962653;28;20054;-68
2021/01/19 00:15:58;;;;;;;8.25;5.72;;;-0.90;99.90;;;;;;4965551;28;20066;-66
2021/01/19 00:18:25;;;;;;;8.30;6.15;;;-0.90;99.90;;;;;;4964209;28;20483;-65
2021/01/19 00:20:52;;;;;;;8.63;5.88;;;-0.90;99.90;;;;;;4965352;28;20509;-66
2021/01/19 00:23:18;;;;;;;8.88;6.30;;;-0.90;99.90;;;;;;4961983;28;20777;-64
2021/01/19 00:26:03;;;;;;;7.88;6.03;;;-0.90;99.90;;;;;;4961398;28;20580;-66
2021/01/19 00:28:30;;;;;;;7.50;5.60;;;-0.80;99.90;;;;;;4962009;28;20046;-66
2021/01/19 00:30:57;;;;;;;11.82;5.60;;;-0.80;99.90;;;;;;4964275;28;20043;-66
2021/01/19 00:33:24;;;;;;;6.85;5.10;;;-0.80;99.90;;;;;;4963126;28;20550;-65
2021/01/19 00:35:50;;;;;;;10.02;6.07;;;-0.80;99.90;;;;;;4964612;28;20054;-65
2021/01/19 00:38:17;;;;;;;8.15;5.90;;;-0.80;99.90;;;;;;4962868;28;20134;-66
2021/01/19 00:40:43;;;;;;;9.02;6.03;;;-0.80;99.90;;;;;;4964383;28;20189;-66
2021/01/19 00:43:10;;;;;;;10.90;5.40;;;-0.80;99.90;;;;;;4964203;28;20057;-66
2021/01/19 00:45:36;;;;;;;9.25;6.32;;;-0.80;99.90;;;;;;4963150;28;20062;-69
2021/01/19 00:48:03;;;;;;;10.65;6.05;;;-0.80;99.90;;;;;;4964268;28;20073;-66
2021/01/19 00:50:31;;;;;;;10.00;6.25;;;-0.80;99.90;;;;;;4962486;28;20043;-65
2021/01/19 00:53:01;;;;;;;8.85;5.95;;;-0.70;99.90;;;;;;4961429;28;20146;-64
2021/01/19 00:55:27;;;;;;;6.32;4.88;;;-0.70;99.90;;;;;;4963044;28;20414;-64
2021/01/19 00:57:54;;;;;;;8.35;5.93;;;-0.70;99.90;;;;;;4976708;28;20494;-66
2021/01/19 01:00:24;;;;;;;;;;;-0.70;99.90;;;;;;4963117;28;20051;-66
2021/01/19 01:02:53;;;;;;;9.68;5.68;;;-0.70;99.90;;;;;;4963707;28;19933;-66
2021/01/19 01:05:20;;;;;;;9.98;5.90;;;-0.70;99.90;;;;;;4963112;28;20106;-66
2021/01/19 01:07:46;;;;;;;9.55;5.72;;;-0.70;99.90;;;;;;4963618;28;20146;-66
2021/01/19 01:10:15;;;;;;;10.32;6.13;;;-0.70;99.90;;;;;;4963754;28;20463;-65
2021/01/19 01:12:45;;;;;;;12.23;6.57;;;-0.70;99.90;;;;;;4964255;28;20046;-68
2021/01/19 01:15:15;;;;;;;8.48;4.45;;;-0.70;99.90;;;;;;4963812;28;20073;-67
2021/01/19 01:17:41;;;;;;;10.27;5.10;;;-0.70;99.90;;;;;;4962884;28;20105;-65
2021/01/19 01:20:09;;;;;;;10.98;5.85;;;-0.70;99.90;;;;;;4963639;28;20081;-66
2021/01/19 01:22:46;;;;;;;7.53;6.03;;;-0.70;99.90;;;;;;4963053;28;20292;-66
2021/01/19 01:25:13;;;;;;;11.90;6.60;;;-0.70;99.90;;;;;;4963975;28;21330;-64
2021/01/19 01:27:41;;;;;;;9.85;5.93;;;-0.70;99.90;;;;;;4961863;28;20046;-67
2021/01/19 01:30:10;;;;;;;8.20;6.50;;;-0.70;99.90;;;;;;4963219;28;20050;-66
2021/01/19 01:32:41;;;;;;;9.27;5.85;;;-0.70;99.90;;;;;;4963800;28;20053;-65
2021/01/19 01:35:09;;;;;;;12.98;8.52;;;-0.70;99.90;;;;;;4963354;28;20419;-66
2021/01/19 01:37:35;;;;;;;10.15;6.53;;;-0.60;99.90;;;;;;4961659;28;20046;-64
2021/01/19 01:40:03;;;;;;;11.13;6.63;;;-0.60;99.90;;;;;;4955527;28;20055;-65
2021/01/19 01:42:30;;;;;;;8.65;6.53;;;-0.70;99.90;;;;;;4963342;28;20155;-66
2021/01/19 01:44:56;;;;;;;11.35;7.40;;;-0.70;99.90;;;;;;4964111;28;20490;-66
2021/01/19 01:47:25;;;;;;;13.38;7.88;;;-0.70;99.90;;;;;;4955581;28;20456;-65
2021/01/19 01:49:55;;;;;;;12.27;7.03;;;-0.70;99.90;;;;;;4960328;28;20081;-65
2021/01/19 01:52:22;;;;;;;;;;;-0.70;99.90;;;;;;4963768;28;20055;-67
2021/01/19 01:54:53;;;;;;;13.10;8.05;;;-0.70;99.90;;;;;;4963137;28;20459;-65
2021/01/19 01:57:20;;;;;;;11.82;8.80;;;-0.70;99.90;;;;;;4961834;28;20526;-66
2021/01/19 01:59:54;;;;;;;14.93;8.35;;;-0.70;99.90;;;;;;4959153;28;20060;-66
2021/01/19 02:02:21;;;;;;;12.50;8.55;;;-0.70;99.90;;;;;;4962924;28;20058;-64
2021/01/19 02:04:47;;;;;;;14.13;9.00;;;-0.70;99.90;;;;;;4963299;28;20078;-67
2021/01/19 02:07:51;;;;;;;18.70;10.70;;;-0.70;99.90;;;;;;4962921;28;20228;-67
2021/01/19 02:10:34;;;;;;;20.92;11.15;;;-0.70;99.90;;;;;;4960789;28;20054;-65
2021/01/19 02:13:06;;;;;;;19.65;10.90;;;-0.60;99.90;;;;;;4962765;28;20050;-65
2021/01/19 02:15:45;;;;;;;19.35;10.48;;;-0.60;99.90;;;;;;4962064;28;20142;-64
2021/01/19 02:18:32;;;;;;;21.13;12.10;;;-0.70;99.90;;;;;;4960995;28;20063;-67
2021/01/19 02:21:42;;;;;;;16.33;10.13;;;-0.60;99.90;;;;;;4962946;28;20655;-66
2021/01/19 02:24:16;;;;;;;18.02;11.10;;;-0.60;99.90;;;;;;4954891;28;20055;-64
2021/01/19 02:27:04;;;;;;;20.80;12.00;;;-0.60;99.90;;;;;;4963158;28;20042;-64
2021/01/19 02:29:50;;;;;;;18.67;10.88;;;-0.60;99.90;;;;;;4961796;28;20130;-64
2021/01/19 02:32:54;;;;;;;18.75;11.88;;;-0.70;99.90;;;;;;4961165;28;20058;-66
2021/01/19 02:35:28;;;;;;;19.83;11.68;;;-0.60;99.90;;;;;;4960718;28;20043;-65
2021/01/19 02:38:24;;;;;;;16.73;11.52;;;-0.60;99.90;;;;;;4962525;28;20738;-67
2021/01/19 02:40:55;;;;;;;21.42;11.95;;;-0.60;99.90;;;;;;4961163;28;20491;-66
2021/01/19 02:43:25;;;;;;;19.02;10.75;;;-0.60;99.90;;;;;;4959558;28;20047;-66
2021/01/19 02:45:56;;;;;;;18.23;11.90;;;-0.60;99.90;;;;;;4956474;28;20050;-65
2021/01/19 02:48:23;;;;;;;21.08;11.75;;;-0.60;99.90;;;;;;4961380;28;20467;-65
2021/01/19 02:50:51;;;;;;;17.17;11.25;;;-0.60;99.90;;;;;;4960583;28;20546;-68
2021/01/19 02:53:18;;;;;;;19.08;11.90;;;-0.60;99.90;;;;;;4960810;28;20439;-66
2021/01/19 02:55:45;;;;;;;18.65;11.13;;;-0.60;99.90;;;;;;4963480;28;20127;-66
2021/01/19 02:58:37;;;;;;;19.15;12.55;;;-0.60;99.90;;;;;;4965532;28;20046;-66
2021/01/19 03:01:06;;;;;;;15.82;10.00;;;-0.60;99.90;;;;;;4961891;28;20097;-68
2021/01/19 03:03:35;;;;;;;16.02;9.45;;;-0.60;99.90;;;;;;4961891;28;20050;-66
2021/01/19 03:06:07;;;;;;;23.33;11.45;;;-0.60;99.90;;;;;;4966869;28;20550;-67
2021/01/19 03:08:37;;;;;;;14.68;8.88;;;-0.60;99.90;;;;;;4965895;28;20471;-66
2021/01/19 03:11:04;;;;;;;14.85;9.30;;;-0.50;99.90;;;;;;4967444;28;20054;-69
2021/01/19 03:13:31;;;;;;;14.75;10.60;;;-0.60;99.90;;;;;;4966072;28;20067;-64
2021/01/19 03:16:09;;;;;;;17.90;10.82;;;-0.60;99.90;;;;;;4966363;28;20047;-65
2021/01/19 03:18:37;;;;;;;15.63;9.57;;;-0.60;99.90;;;;;;4968180;28;20050;-65
2021/01/19 03:21:05;;;;;;;12.45;9.20;;;-0.60;99.90;;;;;;4967407;28;20565;-68
2021/01/19 03:23:33;;;;;;;15.57;9.45;;;-0.50;99.90;;;;;;4965204;28;20043;-66
2021/01/19 03:25:59;;;;;;;14.60;9.30;;;-0.50;99.90;;;;;;4964155;28;20066;-66
2021/01/19 03:28:44;;;;;;;12.75;8.95;;;-0.50;99.90;;;;;;4965690;28;20046;-65
2021/01/19 03:31:11;;;;;;;12.40;8.88;;;-0.50;99.90;;;;;;4963182;28;20650;-64
2021/01/19 03:33:37;;;;;;;13.60;8.82;;;-0.60;99.90;;;;;;4965080;28;20054;-65
2021/01/19 03:36:04;;;;;;;15.57;9.27;;;-0.50;99.90;;;;;;4965870;28;20055;-65
2021/01/19 03:38:34;;;;;;;17.55;10.40;;;-0.50;99.90;;;;;;4965345;28;20062;-66
2021/01/19 03:41:01;;;;;;;16.10;9.57;;;-0.50;99.90;;;;;;4966330;28;20043;-65
2021/01/19 03:43:27;;;;;;;13.23;8.70;;;-0.50;99.90;;;;;;4962975;28;20055;-67
2021/01/19 03:45:54;;;;;;;14.82;8.73;;;-0.50;99.90;;;;;;4966691;28;20455;-66
2021/01/19 03:48:20;;;;;;;11.00;7.82;;;-0.50;99.90;;;;;;4964950;28;20054;-66
2021/01/19 03:50:47;;;;;;;12.93;8.65;;;-0.50;99.90;;;;;;4965544;28;20156;-67
2021/01/19 03:53:14;;;;;;;13.18;8.27;;;-0.50;99.90;;;;;;4962403;28;20082;-66
2021/01/19 03:55:40;;;;;;;13.43;8.88;;;-0.50;99.90;;;;;;4962872;28;20046;-64
2021/01/19 03:58:07;;;;;;;13.23;7.97;;;-0.50;99.90;;;;;;4964826;28;20132;-65
2021/01/19 04:00:33;;;;;;;13.05;8.30;;;-0.50;99.90;;;;;;4962618;28;20130;-66
2021/01/19 04:03:00;;;;;;;11.90;8.70;;;-0.50;99.90;;;;;;4965053;28;20047;-66
2021/01/19 04:05:26;;;;;;;11.38;8.02;;;-0.50;99.90;;;;;;4962507;28;20483;-66
2021/01/19 04:07:53;;;;;;;13.70;8.48;;;-0.50;99.90;;;;;;4964988;28;20043;-66
2021/01/19 04:10:20;;;;;;;9.45;7.35;;;-0.50;99.90;;;;;;4964429;28;20046;-67
2021/01/19 04:12:46;;;;;;;13.40;8.90;;;-0.50;99.90;;;;;;4961807;28;20133;-64
2021/01/19 04:15:13;;;;;;;13.07;7.50;;;-0.50;99.90;;;;;;4965673;28;20051;-67
2021/01/19 04:17:40;;;;;;;11.15;8.45;;;-0.60;99.90;;;;;;4962787;28;20203;-64
2021/01/19 04:20:08;;;;;;;14.07;8.50;;;-0.60;99.90;;;;;;4969312;28;20896;-66
2021/01/19 04:22:35;;;;;;;13.55;8.20;;;-0.50;99.90;;;;;;4964041;28;20047;-66
2021/01/19 04:25:04;;;;;;;13.18;7.25;;;-0.50;99.90;;;;;;4965339;28;20067;-66
2021/01/19 04:27:31;;;;;;;10.18;6.32;;;-0.60;99.90;;;;;;4963630;28;20106;-65
2021/01/19 04:29:57;;;;;;;12.40;8.75;;;-0.60;99.90;;;;;;4964965;28;20129;-66
2021/01/19 04:32:24;;;;;;;11.25;6.70;;;-0.50;99.90;;;;;;4965113;28;20074;-67
2021/01/19 04:34:50;;;;;;;10.93;6.90;;;-0.60;99.90;;;;;;4967894;28;20051;-64
2021/01/19 04:37:16;;;;;;;11.27;6.88;;;-0.60;99.90;;;;;;4969122;28;20751;-66
2021/01/19 04:39:44;;;;;;;12.57;6.72;;;-0.60;99.90;;;;;;4964766;28;20121;-65
2021/01/19 04:42:14;;;;;;;12.98;7.75;;;-0.60;99.90;;;;;;4964464;28;20051;-65
2021/01/19 04:44:40;;;;;;;8.35;6.22;;;-0.60;99.90;;;;;;4964366;28;20078;-65
2021/01/19 04:47:07;;;;;;;11.13;5.88;;;-0.60;99.90;;;;;;4964491;28;20054;-66
2021/01/19 04:49:35;;;;;;;10.63;6.28;;;-0.60;99.90;;;;;;4962615;28;20050;-68
2021/01/19 04:52:04;;;;;;;9.77;5.88;;;-0.60;99.90;;;;;;4964007;28;20055;-69
2021/01/19 04:54:57;;;;;;;6.40;4.75;;;-0.60;99.90;;;;;;4964789;28;20081;-65
2021/01/19 04:57:30;;;;;;;7.97;5.43;;;-0.60;99.90;;;;;;4961974;28;20046;-65
2021/01/19 05:00:09;;;;;;;9.45;5.97;;;-0.60;99.90;;;;;;4964382;28;20081;-68
2021/01/19 05:02:43;;;;;;;8.32;5.25;;;-0.60;99.90;;;;;;4962014;28;20066;-64
2021/01/19 05:05:24;;;;;;;6.18;5.00;;;-0.60;99.90;;;;;;4965005;28;20050;-66
2021/01/19 05:08:23;;;;;;;8.77;5.15;;;-0.60;99.90;;;;;;4958705;28;20046;-66
2021/01/19 05:10:58;;;;;;;9.07;5.70;;;-0.60;99.90;;;;;;4960455;28;20144;-65
2021/01/19 05:13:53;;;;;;;11.80;5.57;;;-0.70;99.90;;;;;;4964647;28;20158;-65
2021/01/19 05:16:27;;;;;;;8.80;5.30;;;-0.70;99.90;;;;;;4963837;28;20086;-65
2021/01/19 05:18:55;;;;;;;7.05;5.18;;;-0.70;99.90;;;;;;4964723;28;20380;-69
2021/01/19 05:21:21;;;;;;;7.47;5.68;;;-0.70;99.90;;;;;;4963867;28;20154;-65
2021/01/19 05:23:48;;;;;;;11.48;6.20;;;-0.70;99.90;;;;;;4963445;28;20042;-65
2021/01/19 05:26:16;;;;;;;8.85;5.55;;;-0.70;99.90;;;;;;4964829;28;20054;-67
2021/01/19 05:28:51;;;;;;;11.02;5.82;;;-0.70;99.90;;;;;;4967737;28;20046;-66
2021/01/19 05:31:23;;;;;;;8.43;6.00;;;-0.70;99.90;;;;;;4963640;28;20049;-64
2021/01/19 05:33:52;;;;;;;8.85;6.57;;;-0.70;99.90;;;;;;4963937;28;20057;-64
2021/01/19 05:36:43;;;;;;;9.10;6.35;;;-0.70;99.90;;;;;;4965371;28;20558;-66
2021/01/19 05:39:22;;;;;;;13.85;6.90;;;-0.70;99.90;;;;;;4959765;28;20402;-64
2021/01/19 05:41:53;;;;;;;11.52;6.43;;;-0.70;99.90;;;;;;4961261;28;20105;-65
2021/01/19 05:44:33;;;;;;;12.13;6.15;;;-0.70;99.90;;;;;;4959616;28;20046;-64
2021/01/19 05:47:02;;;;;;;12.80;6.72;;;-0.70;99.90;;;;;;4963329;28;20284;-64
2021/01/19 05:49:41;;;;;;;10.70;7.30;;;-0.60;99.90;;;;;;4962145;28;20058;-66
2021/01/19 05:52:15;;;;;;;14.90;9.13;;;-0.60;99.90;;;;;;4962304;28;20513;-66
2021/01/19 05:55:00;;;;;;;13.27;7.25;;;-0.60;99.90;;;;;;4962860;28;20065;-65
2021/01/19 05:57:27;;;;;;;16.75;8.27;;;-0.60;99.90;;;;;;4962129;28;20085;-67
2021/01/19 06:00:04;;;;;;;13.70;8.48;;;-0.60;99.90;;;;;;4962539;28;20134;-69
2021/01/19 06:02:42;;;;;;;15.05;8.85;;;-0.60;99.90;;;;;;4964069;28;20507;-66
2021/01/19 06:05:10;;;;;;;15.77;8.38;;;-0.50;99.90;;;;;;4963352;28;20402;-66
2021/01/19 06:07:44;;;;;;;14.63;8.60;;;-0.50;99.90;;;;;;4959786;28;20078;-66
2021/01/19 06:10:15;;;;;;;14.93;8.68;;;-0.50;99.90;;;;;;4962244;28;20582;-66
2021/01/19 06:12:42;;;;;;;19.00;10.35;;;-0.50;99.90;;;;;;4963376;28;20057;-66
2021/01/19 06:15:09;;;;;;;15.07;8.73;;;-0.50;99.90;;;;;;4963141;28;20054;-66
2021/01/19 06:17:36;;;;;;;14.95;8.18;;;-0.50;99.90;;;;;;4962025;28;20054;-65
2021/01/19 06:20:07;;;;;;;15.20;8.68;;;-0.40;99.90;;;;;;4962669;28;20109;-69
2021/01/19 06:22:34;;;;;;;18.65;9.98;;;-0.50;99.90;;;;;;4962411;28;20043;-66
2021/01/19 06:25:03;;;;;;;15.07;9.50;;;-0.40;99.90;;;;;;4959204;28;20051;-64
2021/01/19 06:27:32;;;;;;;14.93;10.15;;;-0.40;99.90;;;;;;4961157;28;20138;-66
2021/01/19 06:29:58;;;;;;;18.48;10.57;;;-0.40;99.90;;;;;;4963524;28;20046;-66
2021/01/19 06:32:26;;;;;;;17.33;9.32;;;-0.40;99.90;;;;;;4962239;28;20046;-69
2021/01/19 06:34:53;;;;;;;16.45;10.68;;;-0.40;99.90;;;;;;4959199;28;20150;-65
2021/01/19 06:37:25;;;;;;;15.07;9.55;;;-0.40;99.90;;;;;;4958406;28;20046;-66
2021/01/19 06:40:05;;;;;;;16.77;10.50;;;-0.40;99.90;;;;;;4969774;28;20087;-65
2021/01/19 06:42:35;;;;;;;19.42;9.68;;;-0.40;99.90;;;;;;4965193;28;20042;-65
2021/01/19 06:45:10;;;;;;;19.88;10.18;;;-0.40;99.90;;;;;;4966818;28;20054;-68
2021/01/19 06:47:51;;;;;;;20.10;9.63;;;-0.40;99.90;;;;;;4965457;28;20117;-66
2021/01/19 06:50:21;;;;;;;20.40;12.05;;;-0.40;99.90;;;;;;4966911;28;20047;-67
2021/01/19 06:53:20;;;;;;;21.75;12.20;;;-0.40;99.90;;;;;;4966414;28;20070;-65
2021/01/19 06:56:11;;;;;;;20.98;10.57;;;-0.40;99.90;;;;;;4963000;28;20525;-66
2021/01/19 06:58:48;;;;;;;18.13;11.48;;;-0.40;99.90;;;;;;4966488;28;20068;-67
2021/01/19 07:01:17;;;;;;;23.48;12.73;;;-0.30;99.90;;;;;;4968080;28;21224;-64
2021/01/19 07:03:45;;;;;;;20.33;14.25;;;-0.30;99.90;;;;;;4966078;28;20138;-66
2021/01/19 07:06:14;;;;;;;25.30;13.25;;;-0.30;99.90;;;;;;4966595;28;20051;-64
2021/01/19 07:08:46;;;;;;;27.92;14.18;;;-0.30;99.90;;;;;;4964694;28;20050;-66
2021/01/19 07:11:37;;;;;;;26.20;14.43;;;-0.20;99.90;;;;;;4966566;28;20142;-65
2021/01/19 07:14:10;;;;;;;22.75;15.02;;;-0.30;99.90;;;;;;4964926;28;20051;-69
2021/01/19 07:17:06;;;;;;;25.08;16.02;;;-0.30;99.90;;;;;;4966508;28;20104;-65
2021/01/19 07:19:33;;;;;;;24.52;15.07;;;-0.30;99.90;;;;;;4964326;28;20576;-67
2021/01/19 07:22:09;;;;;;;30.17;15.10;;;-0.30;99.90;;;;;;4965497;28;20047;-68
2021/01/19 07:24:41;;;;;;;28.25;16.30;;;-0.30;99.90;;;;;;4966640;28;20057;-64
2021/01/19 07:27:10;;;;;;;26.70;16.48;;;-0.30;99.90;;;;;;4965187;28;20443;-66
2021/01/19 07:29:38;;;;;;;24.48;14.45;;;-0.30;99.90;;;;;;4964811;28;20055;-65
2021/01/19 07:32:13;;;;;;;30.55;16.20;;;-0.30;99.90;;;;;;4965752;28;20121;-66
2021/01/19 07:34:41;;;;;;;27.45;15.05;;;-0.30;99.90;;;;;;4964377;28;20450;-65
2021/01/19 07:37:08;;;;;;;29.00;16.23;;;-0.30;99.90;;;;;;4958529;28;20131;-69
2021/01/19 07:39:36;;;;;;;26.50;16.15;;;-0.30;99.90;;;;;;4964160;28;20046;-65
2021/01/19 07:42:18;;;;;;;37.22;17.58;;;-0.40;99.90;;;;;;4965357;28;20753;-65
2021/01/19 07:44:58;;;;;;;33.33;18.20;;;-0.30;99.90;;;;;;4965676;28;20046;-67
2021/01/19 07:47:42;;;;;;;31.83;18.05;;;-0.30;99.90;;;;;;4963764;28;20391;-67
2021/01/19 07:50:13;;;;;;;35.13;17.08;;;-0.30;99.90;;;;;;4965668;28;20147;-65
2021/01/19 07:52:42;;;;;;;27.92;15.50;;;-0.30;99.90;;;;;;4962131;28;20359;-66
2021/01/19 07:55:21;;;;;;;32.67;17.30;;;-0.30;99.90;;;;;;4965519;28;20066;-67
2021/01/19 07:57:50;;;;;;;33.15;15.82;;;-0.30;99.90;;;;;;4957449;28;20522;-67
2021/01/19 08:00:25;;;;;;;25.10;15.43;;;-0.30;99.90;;;;;;4965697;28;20490;-65
2021/01/19 08:03:07;;;;;;;29.83;19.35;;;-0.30;99.90;;;;;;4965454;28;20047;-69
2021/01/19 08:05:34;;;;;;;32.28;16.73;;;-0.20;99.90;;;;;;4964648;28;20061;-66
2021/01/19 08:08:11;;;;;;;28.15;18.33;;;-0.20;99.90;;;;;;4964383;28;20058;-64
2021/01/19 08:10:37;;;;;;;29.27;15.98;;;-0.20;99.90;;;;;;4964104;28;20035;-65
2021/01/19 08:13:15;;;;;;;32.30;18.98;;;-0.20;99.90;;;;;;4965730;28;20051;-66
2021/01/19 08:15:41;;;;;;;27.52;15.93;;;-0.20;99.90;;;;;;4963944;28;20062;-66
2021/01/19 08:18:17;;;;;;;30.00;16.83;;;-0.20;99.90;;;;;;4965094;28;20138;-66
2021/01/19 08:21:03;;;;;;;28.52;15.85;;;-0.20;99.90;;;;;;4965539;28;20647;-65
2021/01/19 08:23:33;;;;;;;31.67;17.33;;;-0.10;99.90;;;;;;4962976;28;20073;-66
2021/01/19 08:26:07;;;;;;;33.05;17.95;;;-0.10;99.90;;;;;;4965388;28;20438;-66
2021/01/19 08:28:36;;;;;;;29.90;15.95;;;-0.10;99.90;;;;;;4965074;28;20101;-64
2021/01/19 08:31:12;;;;;;;26.52;15.80;;;-0.10;99.90;;;;;;4965608;28;20582;-67
2021/01/19 08:33:40;;;;;;;25.48;14.27;;;-0.10;99.90;;;;;;4961355;28;20064;-66
2021/01/19 08:36:09;;;;;;;25.75;15.48;;;-0.10;99.90;;;;;;4963395;28;20078;-65
2021/01/19 08:38:36;;;;;;;25.38;15.45;;;-0.10;99.90;;;;;;4958217;28;20058;-66
2021/01/19 08:41:02;;;;;;;25.95;13.65;;;-0.10;99.90;;;;;;4965403;28;20537;-67
2021/01/19 08:43:30;;;;;;;25.10;14.65;;;0.00;99.90;;;;;;4961339;28;20069;-65
2021/01/19 08:46:00;;;;;;;29.08;16.05;;;0.00;99.90;;;;;;4964333;28;20121;-67
2021/01/19 08:48:28;;;;;;;26.20;14.48;;;0.00;99.90;;;;;;4963177;28;20079;-66
2021/01/19 08:50:55;;;;;;;24.77;14.55;;;0.00;99.90;;;;;;4961406;28;20070;-65
2021/01/19 08:53:27;;;;;;;29.48;14.55;;;0.00;99.90;;;;;;4961377;28;20098;-67
2021/01/19 08:55:54;;;;;;;29.00;14.73;;;0.10;99.90;;;;;;4963968;28;20043;-67
2021/01/19 08:58:20;;;;;;;21.33;13.00;;;0.10;99.90;;;;;;4963813;28;20138;-65
2021/01/19 09:00:47;;;;;;;22.83;14.00;;;0.00;99.90;;;;;;4964429;28;20447;-65
2021/01/19 09:03:16;;;;;;;21.17;13.82;;;0.10;99.90;;;;;;4963931;28;20097;-68
2021/01/19 09:06:07;;;;;;;24.00;14.00;;;0.10;99.90;;;;;;4962750;28;20053;-66
2021/01/19 09:08:38;;;;;;;27.20;14.60;;;0.10;99.90;;;;;;4963296;28;20478;-66
2021/01/19 09:11:31;;;;;;;22.45;12.63;;;0.10;99.90;;;;;;4961778;28;20081;-66
2021/01/19 09:14:09;;;;;;;23.10;12.38;;;0.10;99.90;;;;;;4963343;28;20467;-66
2021/01/19 09:16:37;;;;;;;24.90;14.20;;;0.10;99.90;;;;;;4964216;28;20054;-70
2021/01/19 09:19:07;;;;;;;21.98;13.23;;;0.20;99.90;;;;;;4963012;28;20683;-69
2021/01/19 09:21:36;;;;;;;23.48;14.40;;;0.20;99.90;;;;;;4963211;28;20105;-69
2021/01/19 09:24:10;;;;;;;20.20;12.65;;;0.10;99.90;;;;;;4962786;28;20043;-65
2021/01/19 09:26:46;;;;;;;21.10;13.02;;;0.20;99.90;;;;;;4964020;28;20109;-65
2021/01/19 09:29:12;;;;;;;20.90;12.63;;;0.20;99.90;;;;;;4962938;28;20046;-67
2021/01/19 09:31:41;;;;;;;20.35;13.05;;;0.30;99.90;;;;;;4963779;28;20055;-65
2021/01/19 09:34:11;;;;;;;24.42;14.40;;;0.30;99.90;;;;;;4963586;28;20097;-69
2021/01/19 09:36:38;;;;;;;26.13;14.93;;;0.30;99.90;;;;;;4955494;28;20711;-66
2021/01/19 09:39:05;;;;;;;20.83;12.73;;;0.30;99.90;;;;;;4963012;28;20122;-65
2021/01/19 09:41:31;;;;;;;19.55;12.95;;;0.30;99.90;;;;;;4961660;28;20050;-65
2021/01/19 09:43:58;;;;;;;24.52;12.65;;;0.40;99.90;;;;;;4963401;28;20146;-65
2021/01/19 09:46:26;;;;;;;23.73;14.45;;;0.40;99.90;;;;;;4963486;28;20053;-65
2021/01/19 09:48:57;;;;;;;21.33;13.57;;;0.40;99.90;;;;;;4963764;28;20101;-66
2021/01/19 09:51:25;;;;;;;25.30;14.27;;;0.40;99.90;;;;;;4961244;28;20073;-66
2021/01/19 09:53:56;;;;;;;19.77;12.50;;;0.40;99.90;;;;;;4959930;28;20054;-66
2021/01/19 09:56:23;;;;;;;22.05;13.57;;;0.40;99.90;;;;;;4963857;28;20435;-71
2021/01/19 09:59:00;;;;;;;21.63;13.35;;;0.40;99.90;;;;;;4963423;28;20576;-65
2021/01/19 10:01:27;;;;;;;23.00;12.52;;;0.50;99.90;;;;;;4957956;28;20403;-65
2021/01/19 10:03:54;;;;;;;22.50;13.32;;;0.50;99.90;;;;;;4963360;28;20053;-66
2021/01/19 10:06:21;;;;;;;19.80;12.38;;;0.50;99.90;;;;;;4963995;28;20055;-66
2021/01/19 10:08:54;;;;;;;20.95;14.38;;;0.50;99.90;;;;;;4962268;28;20047;-65
2021/01/19 10:11:31;;;;;;;24.55;14.95;;;0.60;99.90;;;;;;4964545;28;20117;-66
2021/01/19 10:14:14;;;;;;;20.85;12.20;;;0.60;99.90;;;;;;4966902;28;20062;-68
2021/01/19 10:16:52;;;;;;;23.25;14.85;;;0.60;99.90;;;;;;4967312;28;20098;-65
2021/01/19 10:19:37;;;;;;;24.52;14.00;;;0.70;99.90;;;;;;4964217;28;20083;-67
2021/01/19 10:22:06;;;;;;;19.33;11.75;;;0.70;99.90;;;;;;4964250;28;20078;-68
2021/01/19 10:24:33;;;;;;;23.42;13.82;;;0.70;99.90;;;;;;4967947;28;20518;-66
2021/01/19 10:27:05;;;;;;;21.45;13.43;;;0.80;99.90;;;;;;4966062;28;20222;-71
2021/01/19 10:29:42;;;;;;;26.48;14.32;;;0.80;99.90;;;;;;4965804;28;20129;-67
2021/01/19 10:32:14;;;;;;;19.13;13.05;;;0.80;99.90;;;;;;4963168;28;20055;-67
2021/01/19 10:34:46;;;;;;;21.50;14.68;;;0.90;99.90;;;;;;4962635;28;20055;-66
2021/01/19 10:37:12;;;;;;;22.98;13.50;;;0.80;99.90;;;;;;4964897;28;20554;-66
2021/01/19 10:39:58;;;;;;;22.48;13.18;;;0.90;99.90;;;;;;4965086;28;20101;-66
2021/01/19 10:42:30;;;;;;;23.48;12.82;;;0.90;99.90;;;;;;4966965;28;20042;-70
2021/01/19 10:45:02;;;;;;;25.75;13.23;;;0.90;99.90;;;;;;4966134;28;20125;-67
2021/01/19 10:47:43;;;;;;;21.02;12.85;;;0.90;99.90;;;;;;4968179;28;20209;-65
2021/01/19 10:50:25;;;;;;;21.67;12.32;;;1.00;99.90;;;;;;4967013;28;20054;-67
2021/01/19 10:52:56;;;;;;;18.43;9.13;;;0.90;99.90;;;;;;4966464;28;20557;-69
2021/01/19 10:55:23;;;;;;;23.50;13.88;;;0.90;99.90;;;;;;4965565;28;20051;-66
2021/01/19 10:58:03;;;;;;;22.05;13.80;;;0.80;99.90;;;;;;4966940;28;20105;-65
2021/01/19 11:00:31;;;;;;;20.08;11.27;;;0.90;99.90;;;;;;4966713;28;20734;-69
2021/01/19 11:02:58;;;;;;;27.00;14.88;;;0.80;99.90;;;;;;4966398;28;20109;-67
2021/01/19 11:05:25;;;;;;;26.67;15.27;;;0.80;99.90;;;;;;4965108;28;20134;-66
2021/01/19 11:07:54;;;;;;;28.67;14.18;;;0.80;99.90;;;;;;4966053;28;20097;-69
2021/01/19 11:10:25;;;;;;;19.75;13.07;;;0.80;99.90;;;;;;4964916;28;20050;-68
2021/01/19 11:12:55;;;;;;;23.35;13.75;;;0.80;99.90;;;;;;4958191;28;20051;-67
2021/01/19 11:15:23;;;;;;;23.83;13.82;;;0.80;99.90;;;;;;4964620;28;20050;-66
2021/01/19 11:17:51;;;;;;;25.70;13.32;;;0.80;99.90;;;;;;4966549;28;20395;-66
2021/01/19 11:20:18;;;;;;;23.40;13.90;;;0.80;99.90;;;;;;4966484;28;20054;-67
2021/01/19 11:22:47;;;;;;;24.10;13.75;;;0.80;99.90;;;;;;4963689;28;20133;-66
2021/01/19 11:25:15;;;;;;;18.52;13.05;;;0.90;99.90;;;;;;4966915;28;20059;-67
2021/01/19 11:27:42;;;;;;;22.20;12.85;;;0.90;99.90;;;;;;4965120;28;20090;-66
2021/01/19 11:30:09;;;;;;;19.63;12.52;;;0.90;99.90;;;;;;4966686;28;20458;-66
2021/01/19 11:32:36;;;;;;;22.30;13.68;;;0.90;99.90;;;;;;4957393;28;20677;-66
2021/01/19 11:35:03;;;;;;;19.77;12.80;;;0.90;99.90;;;;;;4972160;28;20070;-67
2021/01/19 11:37:30;;;;;;;22.48;13.50;;;0.90;99.90;;;;;;4963577;28;20058;-66
2021/01/19 11:39:56;;;;;;;25.90;13.45;;;0.90;99.90;;;;;;4966063;28;20494;-66
2021/01/19 11:42:22;;;;;;;18.77;11.93;;;0.90;99.90;;;;;;4966274;28;20081;-66
2021/01/19 11:44:49;;;;;;;22.17;13.38;;;0.90;99.90;;;;;;4965583;28;20061;-67
2021/01/19 11:47:15;;;;;;;24.20;12.30;;;0.90;99.90;;;;;;4965904;28;20135;-66
2021/01/19 11:49:47;;;;;;;26.88;15.35;;;0.90;99.90;;;;;;4964611;28;20050;-67
2021/01/19 11:52:18;;;;;;;21.38;13.05;;;0.90;99.90;;;;;;4965073;28;20097;-65
2021/01/19 11:54:44;;;;;;;22.05;12.48;;;0.90;99.90;;;;;;4966286;28;20047;-66
2021/01/19 11:57:11;;;;;;;22.80;12.32;;;0.80;99.90;;;;;;4965512;28;20050;-65
2021/01/19 11:59:37;;;;;;;20.98;14.13;;;0.80;99.90;;;;;;4964295;28;20121;-69
2021/01/19 12:02:04;;;;;;;19.08;12.68;;;0.80;99.90;;;;;;4963510;28;20418;-69
2021/01/19 12:04:31;;;;;;;22.65;13.02;;;0.80;99.90;;;;;;4965818;28;20136;-65
2021/01/19 12:06:59;;;;;;;23.08;14.32;;;0.80;99.90;;;;;;4965146;28;20494;-70
2021/01/19 12:09:26;;;;;;;22.20;13.48;;;0.80;99.90;;;;;;4963715;28;20055;-66
2021/01/19 12:11:54;;;;;;;20.33;12.48;;;0.80;99.90;;;;;;4965306;28;20067;-66
2021/01/19 12:14:22;;;;;;;25.45;12.80;;;0.80;99.90;;;;;;4963800;28;20150;-67
2021/01/19 12:16:53;;;;;;;21.63;11.95;;;0.80;99.90;;;;;;4965282;28;20074;-67
2021/01/19 12:19:21;;;;;;;19.65;11.90;;;0.80;99.90;;;;;;4964363;28;20059;-69
2021/01/19 12:21:52;;;;;;;21.98;12.38;;;0.80;99.90;;;;;;4966074;28;20074;-65
2021/01/19 12:24:19;;;;;;;21.17;13.20;;;0.70;99.90;;;;;;4964149;28;20055;-66
2021/01/19 12:26:49;;;;;;;16.55;11.45;;;0.70;99.90;;;;;;4965271;28;20637;-66
2021/01/19 12:29:17;;;;;;;20.75;13.48;;;0.70;99.90;;;;;;4964713;28;20638;-67
2021/01/19 12:31:44;;;;;;;19.92;12.18;;;0.70;99.90;;;;;;4966708;28;20050;-65
2021/01/19 12:34:11;;;;;;;19.60;12.88;;;0.70;99.90;;;;;;4966131;28;20062;-65
2021/01/19 12:36:37;;;;;;;22.45;12.68;;;0.70;99.90;;;;;;4961718;28;20133;-68
2021/01/19 12:39:04;;;;;;;20.45;12.20;;;0.60;99.90;;;;;;4964808;28;20066;-65
2021/01/19 12:41:33;;;;;;;18.95;12.73;;;0.60;99.90;;;;;;4963286;28;20067;-65
2021/01/19 12:44:04;;;;;;;22.63;12.20;;;0.60;99.90;;;;;;4965789;28;20065;-65
2021/01/19 12:46:30;;;;;;;19.67;12.75;;;0.60;99.90;;;;;;4964774;28;20051;-66
2021/01/19 12:48:58;;;;;;;19.95;13.40;;;0.60;99.90;;;;;;4964818;28;20057;-65
2021/01/19 12:51:25;;;;;;;20.23;14.00;;;0.60;99.90;;;;;;4963058;28;20055;-69
2021/01/19 12:53:52;;;;;;;23.02;13.48;;;0.60;99.90;;;;;;4963899;28;20097;-67
2021/01/19 12:56:19;;;;;;;19.63;13.48;;;0.60;99.90;;;;;;4965810;28;20089;-66